AirNav   Air Wisconsin Up To $57,000 Bonus
 
 922 users online  

FD01 Hillsborough County Fire Rescue Heliport
Tampa, Florida, USA

GOING TO TAMPA?


FAA INFORMATION EFFECTIVE 02 JANUARY 2020

Location

FAA Identifier: FD01
Lat/Long: 27-58-11.9300N 082-20-44.1000W
27-58.198833N 082-20.735000W
27.9699806,-82.3455833
(estimated)
Elevation: 39 ft. / 12 m (estimated)
Time zone: UTC -5 (UTC -4 during Daylight Saving Time)
Zip code: 33610

Heliport Operations

Heliport use: Private use. Permission required prior to landing
Activation date: 01/2017
Control tower: no
ARTCC: MIAMI CENTER
FSS: SAINT PETERSBURG FLIGHT SERVICE STATION
Attendance: 
Wind indicator: yes
Segmented circle: yes

Heliport Communications

WX AWOS-3 at VDF (2.6 nm N): 121.125 (813-630-0924)
WX AWOS-3 at TPF (6 nm SW): 118.925 (813-251-6824)
WX AWOS-3 at PCM (10 nm E): 120.025 (813-764-8259)
WX ASOS at TPA (10 nm W): PHONE 813-873-7228
WX AWOS-3PT at LAL (17 nm E): 118.025 (863-834-2030)
WX ASOS at PIE (18 nm W): PHONE 727-531-3456
WX AWOS-3PT at ZPH (18 nm NE): 118.975 (813-780-0031)
WX ASOS at SPG (19 nm SW): 118.875 (727-821-4334)

Nearby radio navigation aids

VOR radial/distance  VOR name  Freq  Var
LALr266/17.6LAKELAND VORTAC116.0001E
PIEr083/18.3ST PETERSBURG VORTAC116.4005W
SRQr024/35.7SARASOTA VOR/DME117.0005W

 
NDB name  Hdg/Dist  Freq  Var  ID
COSME131/11.836805WTP - .--.

Heliport Services

Runway Information

Helipad H1

Dimensions: 63 x 63 ft. / 19 x 19 m
Surface: concrete, in good condition
Traffic pattern: leftleft

Heliport Ownership and Management from official FAA records

Ownership: Privately-owned
Owner: HILLSBOROUGH COUNTY FIRE RESCUE
33619 E COLUMBUS DRIVE
TAMPA, FL 33610
Phone 813-272-6600
Manager: ROBERTO CRESPI
33619 E COLUMBUS DRIVE
TAMPA, FL 33610
Phone 813-313-6505

Additional Remarks

FOR CD CTC TAMPA APCH AT 813-878-2528.

Instrument Procedures

There are no published instrument procedures at FD01.

Some nearby airports with instrument procedures:

KVDF - Tampa Executive Airport (3 nm N)
KTPF - Peter O Knight Airport (6 nm SW)
KPCM - Plant City Airport (10 nm E)
KTPA - Tampa International Airport (10 nm W)
KMCF - MacDill Air Force Base (12 nm SW)
KLAL - Lakeland Linder International Airport (17 nm E)
KPIE - St Pete-Clearwater International Airport (18 nm W)
KZPH - Zephyrhills Municipal Airport (18 nm NE)
KSPG - Albert Whitted Airport (19 nm SW)
 
Loc | Ops | Rwys | IFR | FBO | Links
Com | Nav | Svcs | Stats | Notes
Aerial photo
No photo
 
Airport distance calculator
Flying to Hillsborough County Fire Rescue Heliport? Find the distance to fly.

From to FD01

Sunrise and sunset
Times for 21-Jan-2020
 Local
(UTC-5)
 Zulu
(UTC)
Morning civil twilight06:5711:57
Sunrise07:2212:22
Sunset18:0023:00
Evening civil twilight18:2523:25

Current date and time
Zulu (UTC)  22-Jan-2020 03:11:07
Local (UTC-5)  21-Jan-2020 22:11:07
 
METAR
KVDF 
3nm N 
220255Z AUTO 02006KT 10SM CLR 05/M03 A3028 RMK AO2
KTPF 
6nm SW 
220255Z AUTO 02009G19KT 10SM CLR 07/M02 A3027 RMK AO2
KPCM 
10nm E 
220255Z AUTO 36006G15KT 10SM CLR 05/M03 A3028 RMK AO2
KTPA 
10nm W 
220253Z 02014KT 10SM CLR 08/M02 A3028 RMK AO2 SLP254 T00781022 51019
KMCF 
12nm SW 
220256Z AUTO 03012G19KT 10SM CLR 06/M07 A3026 RMK AO2 SLPNO T00591067 52018 FZRANO $
KLAL 
17nm E 
220250Z 36009KT 10SM SKC 05/M06 A3026
KPIE 
18nm W 
220253Z 02017G24KT 10SM CLR 07/M04 A3028 RMK AO2 PK WND 01026/0233 SLP252 T00721044 51019
KZPH 
18nm NE 
220255Z AUTO 35008KT 10SM CLR 04/M06 A3028 RMK A02 T00411061
KSPG 
20nm SW 
220253Z AUTO 01017KT 10SM CLR 08/00 A3025 RMK AO2 PK WND 01026/0220 SLP244 T00830000 51019 TSNO
TAF
KTPA 
10nm W 
212100Z 2121/2224 35015G20KT P6SM FEW030 FM220000 36012G17KT P6SM SKC FM221500 02010G15KT P6SM SKC
KMCF 
12nm SW 
220100Z 2201/2307 03010G15KT 9999 FEW010 QNH3015INS BECMG 2217/2218 36015G20KT 9999 SCT050 QNH3009INS TX15/2220Z TN01/2211Z
KLAL 
17nm E 
211728Z 2118/2218 36015G20KT P6SM FEW030 FM221500 01010G15KT P6SM SKC
KPIE 
18nm W 
211728Z 2118/2218 35015G20KT P6SM FEW030 FM221500 01010G15KT P6SM SKC
NOTAMs
Click for the latest NOTAMs
NOTAMs are issued by the DoD/FAA and will open in a separate window not controlled by AirNav.

 

 
 

Would you like to see your business listed on this page?

 If your business provides an interesting product or service to pilots, flight crews, aircraft, or users of the Hillsborough County Fire Rescue Heliport, you should consider listing it here.  To start the listing process, click on the button below
 
Add a business
 

Other Pages about Hillsborough County Fire Rescue Heliport

Update a link
 
Copyright © AirNav, LLC. All rights reserved. Privacy Policy  Contact